createdAt,value
2019-01-10T00:01:51.825Z,0.97
2019-01-10T00:04:23.507Z,0.67
2019-01-10T00:06:55.136Z,1.30
2019-01-10T00:09:38.757Z,1.43
2019-01-10T00:12:11.064Z,1.40
2019-01-10T00:14:44.094Z,0.70
2019-01-10T00:17:19.558Z,0.90
2019-01-10T00:19:52.917Z,0.93
2019-01-10T00:25:23.409Z,0.87
2019-01-10T00:27:55.049Z,1.50
2019-01-10T00:30:26.688Z,1.07
2019-01-10T00:32:58.342Z,0.90
2019-01-10T00:35:30.125Z,0.80
2019-01-10T00:38:01.807Z,1.00
2019-01-10T00:40:36.130Z,0.93
2019-01-10T00:43:16.195Z,0.90
2019-01-10T00:45:48.724Z,1.00
2019-01-10T00:48:20.663Z,1.13
2019-01-10T00:50:52.450Z,0.70
2019-01-10T00:53:34.248Z,1.63
2019-01-10T00:56:36.477Z,0.90
2019-01-10T00:59:08.230Z,0.70
2019-01-10T01:01:41.708Z,0.90
2019-01-10T01:04:13.965Z,1.20
2019-01-10T01:06:45.771Z,0.90
2019-01-10T01:09:17.502Z,0.97
2019-01-10T01:11:49.230Z,0.90
2019-01-10T01:14:20.866Z,0.90
2019-01-10T01:16:52.481Z,1.33
2019-01-10T01:19:24.228Z,1.03
2019-01-10T01:21:55.842Z,0.77
2019-01-10T01:24:27.500Z,0.80
2019-01-10T01:27:00.075Z,0.97
2019-01-10T01:29:31.790Z,1.07
2019-01-10T01:32:03.516Z,1.00
2019-01-10T01:34:47.435Z,1.10
2019-01-10T01:37:19.308Z,1.27
2019-01-10T01:39:51.510Z,0.93
2019-01-10T01:42:23.258Z,1.60
2019-01-10T01:44:54.936Z,1.20
2019-01-10T01:47:26.794Z,1.40
2019-01-10T01:49:58.872Z,1.03
2019-01-10T01:52:30.484Z,1.17
2019-01-10T01:55:02.217Z,1.10
2019-01-10T01:57:33.832Z,1.07
2019-01-10T02:00:11.266Z,1.00
2019-01-10T02:03:06.986Z,1.20
2019-01-10T02:05:31.168Z,1.10
2019-01-10T02:08:02.988Z,1.10
2019-01-10T02:10:34.636Z,1.30
2019-01-10T02:13:06.444Z,1.33
2019-01-10T02:15:38.103Z,1.00
2019-01-10T02:18:09.730Z,1.20
2019-01-10T02:20:41.372Z,1.37
2019-01-10T02:23:13.001Z,1.27
2019-01-10T02:25:44.642Z,1.30
2019-01-10T02:28:16.266Z,1.87
2019-01-10T02:30:47.892Z,1.30
2019-01-10T02:33:19.510Z,1.10
2019-01-10T02:35:51.141Z,1.30
2019-01-10T02:38:22.756Z,1.33
2019-01-10T02:40:54.373Z,1.10
2019-01-10T02:43:26.607Z,1.27
2019-01-10T02:45:58.564Z,1.50
2019-01-10T02:48:30.181Z,1.50
2019-01-10T02:51:01.830Z,1.60
2019-01-10T02:53:33.540Z,2.20
2019-01-10T02:56:05.384Z,2.03
2019-01-10T02:58:37.022Z,1.90
2019-01-10T03:01:08.644Z,2.17
2019-01-10T03:03:40.272Z,2.33
2019-01-10T03:06:11.915Z,1.90
2019-01-10T03:08:43.549Z,2.33
2019-01-10T03:11:15.192Z,1.80
2019-01-10T03:13:46.800Z,2.00
2019-01-10T03:16:18.433Z,1.90
2019-01-10T03:18:50.054Z,1.60
2019-01-10T03:21:21.684Z,1.47
2019-01-10T03:23:53.330Z,1.97
2019-01-10T03:26:24.951Z,1.70
2019-01-10T03:28:56.568Z,1.97
2019-01-10T03:31:28.206Z,2.17
2019-01-10T03:33:59.838Z,2.00
2019-01-10T03:36:31.465Z,1.63
2019-01-10T03:39:07.430Z,1.87
2019-01-10T03:41:39.061Z,2.07
2019-01-10T03:44:10.674Z,1.77
2019-01-10T03:46:42.296Z,1.77
2019-01-10T03:49:13.922Z,1.70
2019-01-10T03:51:45.563Z,1.87
2019-01-10T03:54:17.164Z,1.57
2019-01-10T03:56:48.812Z,1.90
2019-01-10T03:59:20.420Z,1.67
2019-01-10T04:01:52.052Z,1.50
2019-01-10T04:04:23.721Z,1.73
2019-01-10T04:06:55.364Z,2.00
2019-01-10T04:09:27.102Z,2.17
2019-01-10T04:11:58.749Z,1.80
2019-01-10T04:14:30.364Z,2.00
2019-01-10T04:17:02.256Z,1.37
2019-01-10T04:19:33.898Z,1.73
2019-01-10T04:22:05.796Z,1.20
2019-01-10T04:24:37.418Z,1.40
2019-01-10T04:27:09.053Z,1.57
2019-01-10T04:29:40.673Z,1.60
2019-01-10T04:32:12.338Z,1.10
2019-01-10T04:34:43.961Z,1.70
2019-01-10T04:37:15.594Z,1.27
2019-01-10T04:39:47.220Z,1.40
2019-01-10T04:42:18.849Z,1.10
2019-01-10T04:44:50.466Z,1.20
2019-01-10T04:47:22.180Z,1.30
2019-01-10T04:49:53.814Z,1.10
2019-01-10T04:52:25.453Z,1.53
2019-01-10T04:54:57.072Z,1.50
2019-01-10T04:57:28.698Z,1.67
2019-01-10T05:00:00.324Z,1.67
2019-01-10T05:02:33.872Z,1.37
2019-01-10T05:05:05.839Z,1.60
2019-01-10T05:07:37.464Z,1.47
2019-01-10T05:10:09.317Z,1.57
2019-01-10T05:12:41.852Z,1.57
2019-01-10T05:15:13.925Z,2.20
2019-01-10T05:17:45.566Z,1.57
2019-01-10T05:20:18.757Z,1.30
2019-01-10T05:22:50.491Z,1.87
2019-01-10T05:25:22.132Z,1.70
2019-01-10T05:27:53.789Z,1.57
2019-01-10T05:30:25.408Z,1.70
2019-01-10T05:32:57.045Z,1.53
2019-01-10T05:35:28.653Z,1.67
2019-01-10T05:38:00.512Z,2.00
2019-01-10T05:40:32.138Z,1.87
2019-01-10T05:43:03.773Z,1.87
2019-01-10T05:45:35.393Z,2.10
2019-01-10T05:48:07.029Z,1.70
2019-01-10T05:50:38.672Z,1.80
2019-01-10T05:53:10.301Z,1.97
2019-01-10T05:55:41.937Z,1.73
2019-01-10T05:58:13.579Z,1.63
2019-01-10T06:00:45.317Z,1.67
2019-01-10T06:03:16.949Z,1.60
2019-01-10T06:05:48.671Z,1.60
2019-01-10T06:08:20.317Z,1.70
2019-01-10T06:10:51.944Z,1.53
2019-01-10T06:13:23.576Z,1.90
2019-01-10T06:15:55.211Z,1.80
2019-01-10T06:18:26.842Z,2.00
2019-01-10T06:20:58.457Z,1.70
2019-01-10T06:23:30.093Z,1.70
2019-01-10T06:26:01.726Z,3.63
2019-01-10T06:28:33.368Z,1.67
2019-01-10T06:31:05.103Z,2.03
2019-01-10T06:33:36.726Z,2.37
2019-01-10T06:36:08.351Z,1.43
2019-01-10T06:38:39.973Z,1.73
2019-01-10T06:41:11.595Z,1.93
2019-01-10T06:43:43.270Z,1.80
2019-01-10T06:46:14.894Z,1.60
2019-01-10T06:48:46.577Z,2.10
2019-01-10T06:51:18.237Z,1.90
2019-01-10T06:53:49.864Z,1.90
2019-01-10T06:56:21.493Z,1.73
2019-01-10T06:58:53.133Z,2.07
2019-01-10T07:01:24.746Z,2.23
2019-01-10T07:03:56.393Z,1.40
2019-01-10T07:06:28.020Z,6.10
2019-01-10T07:08:59.644Z,1.73
2019-01-10T07:11:31.261Z,1.67
2019-01-10T07:14:02.916Z,2.27
2019-01-10T07:16:34.545Z,2.13
2019-01-10T07:19:06.182Z,1.73
2019-01-10T07:21:54.937Z,1.87
2019-01-10T07:24:26.583Z,1.90
2019-01-10T07:26:58.480Z,2.10
2019-01-10T07:29:30.115Z,1.70
2019-01-10T07:32:01.738Z,1.47
2019-01-10T07:34:33.395Z,1.97
2019-01-10T07:37:12.634Z,1.63
2019-01-10T07:39:38.680Z,1.80
2019-01-10T07:42:10.304Z,2.00
2019-01-10T07:44:41.940Z,2.23
2019-01-10T07:47:13.556Z,5.70
2019-01-10T07:49:45.185Z,7.30
2019-01-10T07:52:18.714Z,5.80
2019-01-10T07:54:50.441Z,3.47
2019-01-10T07:57:22.132Z,3.53
2019-01-10T07:59:53.768Z,3.80
2019-01-10T08:02:25.411Z,2.40
2019-01-10T08:04:57.054Z,2.63
2019-01-10T08:07:28.665Z,3.33
2019-01-10T08:10:00.313Z,3.03
2019-01-10T08:12:31.936Z,3.77
2019-01-10T08:15:11.616Z,2.90
2019-01-10T08:17:37.456Z,2.87
2019-01-10T08:20:09.404Z,2.20
2019-01-10T08:22:41.229Z,1.83
2019-01-10T08:25:12.868Z,1.83
2019-01-10T08:27:44.593Z,2.30
2019-01-10T08:30:23.738Z,1.73
2019-01-10T08:32:55.352Z,1.57
2019-01-10T08:35:27.850Z,1.67
2019-01-10T08:37:59.477Z,1.70
2019-01-10T08:40:31.108Z,1.93
2019-01-10T08:43:03.029Z,2.03
2019-01-10T08:45:34.707Z,2.20
2019-01-10T08:48:06.424Z,1.50
2019-01-10T08:50:38.078Z,1.57
2019-01-10T08:53:09.706Z,1.50
2019-01-10T08:55:41.336Z,1.13
2019-01-10T08:58:13.101Z,1.07
2019-01-10T09:00:44.737Z,1.43
2019-01-10T09:03:16.345Z,1.50
2019-01-10T09:05:47.970Z,0.87
2019-01-10T09:08:19.592Z,1.50
2019-01-10T09:10:51.365Z,1.50
2019-01-10T09:13:22.978Z,1.23
2019-01-10T09:15:54.623Z,1.40
2019-01-10T09:18:26.254Z,1.10
2019-01-10T09:21:04.284Z,1.40
2019-01-10T09:23:31.438Z,1.40
2019-01-10T09:26:03.176Z,1.20
2019-01-10T09:28:34.801Z,1.60
2019-01-10T09:31:06.542Z,1.50
2019-01-10T09:33:39.732Z,1.63
2019-01-10T09:36:11.515Z,2.30
2019-01-10T09:38:43.234Z,1.27
2019-01-10T09:41:14.852Z,1.37
2019-01-10T09:43:46.487Z,1.60
2019-01-10T09:46:18.216Z,1.20
2019-01-10T09:48:49.837Z,1.30
2019-01-10T09:51:21.464Z,1.50
2019-01-10T09:53:53.089Z,1.43
2019-01-10T09:56:24.729Z,1.23
2019-01-10T09:58:56.348Z,1.47
2019-01-10T10:01:27.981Z,0.70
2019-01-10T10:03:59.625Z,1.10
2019-01-10T10:06:31.256Z,1.10
2019-01-10T10:09:06.289Z,1.30
2019-01-10T10:11:38.008Z,0.73
2019-01-10T10:14:09.637Z,1.17
2019-01-10T10:16:41.278Z,1.07
2019-01-10T10:19:12.889Z,4.40
2019-01-10T10:21:44.528Z,0.97
2019-01-10T10:24:16.245Z,1.87
2019-01-10T10:26:47.881Z,0.80
2019-01-10T10:29:19.623Z,1.07
2019-01-10T10:31:51.266Z,1.30
2019-01-10T10:34:22.881Z,1.40
2019-01-10T10:36:54.650Z,1.07
2019-01-10T10:39:26.269Z,1.07
2019-01-10T10:41:57.917Z,4.33
2019-01-10T10:44:29.538Z,0.80
2019-01-10T10:47:02.437Z,1.57
2019-01-10T10:49:34.100Z,1.30
2019-01-10T10:52:05.862Z,1.40
2019-01-10T10:54:37.553Z,2.00
2019-01-10T10:57:09.188Z,2.17
2019-01-10T10:59:40.833Z,0.83
2019-01-10T11:02:12.462Z,0.80
2019-01-10T11:04:44.088Z,0.90
2019-01-10T11:07:15.925Z,0.90
2019-01-10T11:09:47.537Z,1.60
2019-01-10T11:12:19.181Z,1.03
2019-01-10T11:14:50.815Z,1.00
2019-01-10T11:17:22.547Z,1.10
2019-01-10T11:19:54.173Z,1.50
2019-01-10T11:22:25.815Z,1.00
2019-01-10T11:24:57.432Z,1.00
2019-01-10T11:27:29.065Z,0.93
2019-01-10T11:30:00.699Z,1.20
2019-01-10T11:32:32.338Z,1.00
2019-01-10T11:35:04.178Z,1.00
2019-01-10T11:37:35.828Z,0.90
2019-01-10T11:40:09.539Z,1.33
2019-01-10T11:42:41.260Z,1.23
2019-01-10T11:45:14.830Z,1.87
2019-01-10T11:47:46.671Z,1.20
2019-01-10T11:50:18.280Z,1.17
2019-01-10T11:52:50.134Z,2.53
2019-01-10T11:55:21.968Z,9.27
2019-01-10T11:57:53.585Z,6.50
2019-01-10T12:00:30.118Z,2.00
2019-01-10T12:03:03.857Z,1.20
2019-01-10T12:05:47.485Z,1.23
2019-01-10T12:08:13.790Z,1.40
2019-01-10T12:10:45.408Z,2.63
2019-01-10T12:13:17.045Z,4.20
2019-01-10T12:15:48.670Z,3.93
2019-01-10T12:18:20.309Z,3.23
2019-01-10T12:20:51.921Z,2.53
2019-01-10T12:23:23.668Z,1.97
2019-01-10T12:25:55.362Z,4.63
2019-01-10T12:28:27.083Z,10.30
2019-01-10T12:30:58.731Z,8.37
2019-01-10T12:33:30.365Z,8.90
2019-01-10T12:36:02.112Z,14.87
2019-01-10T12:38:33.750Z,6.77
2019-01-10T12:41:05.366Z,1.87
2019-01-10T12:43:37.010Z,2.17
2019-01-10T12:46:08.633Z,4.30
2019-01-10T12:48:40.284Z,4.37
2019-01-10T12:51:11.905Z,2.37
2019-01-10T12:53:43.541Z,1.30
2019-01-10T12:56:15.165Z,1.30
2019-01-10T12:58:46.813Z,1.20
2019-01-10T13:01:18.449Z,1.10
2019-01-10T13:03:50.123Z,1.00
2019-01-10T13:06:21.847Z,1.00
2019-01-10T13:08:53.491Z,1.20
2019-01-10T13:11:25.108Z,0.73
2019-01-10T13:13:56.735Z,1.13
2019-01-10T13:16:28.385Z,1.03
2019-01-10T13:19:00.010Z,0.87
2019-01-10T13:21:31.628Z,1.07
2019-01-10T13:24:03.357Z,1.47
2019-01-10T13:26:34.973Z,1.33
2019-01-10T13:29:06.621Z,0.93
2019-01-10T13:31:38.232Z,1.33
2019-01-10T13:34:09.881Z,0.87
2019-01-10T13:36:41.602Z,1.30
2019-01-10T13:39:13.244Z,3.00
2019-01-10T13:41:44.889Z,1.83
2019-01-10T13:44:16.524Z,1.50
2019-01-10T13:46:55.534Z,1.83
2019-01-10T13:49:21.702Z,2.10
2019-01-10T13:51:53.533Z,1.40
2019-01-10T13:54:25.186Z,2.10
2019-01-10T13:56:56.906Z,2.40
2019-01-10T13:59:28.545Z,1.50
2019-01-10T14:02:00.205Z,1.37
2019-01-10T14:04:31.840Z,1.10
2019-01-10T14:07:03.769Z,2.20
2019-01-10T14:09:35.401Z,1.80
2019-01-10T14:12:07.012Z,2.10
2019-01-10T14:14:38.669Z,1.70
2019-01-10T14:17:10.498Z,2.03
2019-01-10T14:19:42.235Z,1.33
2019-01-10T14:22:13.966Z,1.73
2019-01-10T14:24:45.602Z,1.53
2019-01-10T14:27:17.433Z,1.37
2019-01-10T14:29:49.066Z,1.10
2019-01-10T14:32:20.701Z,1.67
2019-01-10T14:34:52.347Z,1.43
2019-01-10T14:37:24.065Z,1.40
2019-01-10T14:39:55.702Z,1.10
2019-01-10T14:42:27.329Z,1.20
2019-01-10T14:44:59.391Z,1.37
2019-01-10T14:47:31.017Z,1.77
2019-01-10T14:50:03.890Z,1.30
2019-01-10T14:52:35.604Z,1.40
2019-01-10T14:55:08.712Z,1.70
2019-01-10T14:57:40.526Z,1.13
2019-01-10T15:00:15.076Z,1.30
2019-01-10T15:02:46.808Z,0.80
2019-01-10T15:05:18.685Z,1.10
2019-01-10T15:07:50.414Z,1.20
2019-01-10T15:10:22.045Z,1.37
2019-01-10T15:12:53.769Z,3.60
2019-01-10T15:15:27.309Z,4.17
2019-01-10T15:17:58.945Z,4.43
2019-01-10T15:20:30.888Z,5.60
2019-01-10T15:23:02.621Z,5.47
2019-01-10T15:25:34.289Z,8.60
2019-01-10T15:28:06.016Z,10.53
2019-01-10T15:30:37.645Z,19.60
2019-01-10T15:33:09.270Z,11.03
2019-01-10T15:35:40.898Z,4.93
2019-01-10T15:38:13.993Z,2.93
2019-01-10T15:40:45.974Z,2.07
2019-01-10T15:43:17.617Z,1.77
2019-01-10T15:45:49.250Z,4.20
2019-01-10T15:48:20.868Z,2.57
2019-01-10T15:50:52.523Z,2.20
2019-01-10T15:53:24.138Z,1.60
2019-01-10T15:55:55.764Z,2.63
2019-01-10T15:58:27.397Z,4.33
2019-01-10T16:01:00.984Z,4.43
2019-01-10T16:03:32.633Z,3.50
2019-01-10T16:06:04.668Z,1.53
2019-01-10T16:08:36.297Z,1.50
2019-01-10T16:11:07.945Z,1.90
2019-01-10T16:13:39.565Z,1.57
2019-01-10T16:16:11.219Z,2.03
2019-01-10T16:18:42.869Z,1.60
2019-01-10T16:21:14.533Z,1.80
2019-01-10T16:23:46.164Z,1.67
2019-01-10T16:26:17.794Z,1.80
2019-01-10T16:28:49.409Z,1.50
2019-01-10T16:31:21.069Z,1.63
2019-01-10T16:33:52.706Z,1.60
2019-01-10T16:36:24.341Z,1.43
2019-01-10T16:38:56.002Z,3.13
2019-01-10T16:41:27.640Z,2.43
2019-01-10T16:43:59.365Z,1.60
2019-01-10T16:46:31.002Z,1.53
2019-01-10T16:49:02.641Z,1.63
2019-01-10T16:51:34.273Z,1.80
2019-01-10T16:54:05.904Z,1.50
2019-01-10T16:56:37.544Z,1.60
2019-01-10T16:59:09.162Z,2.53
2019-01-10T17:01:40.845Z,2.23
2019-01-10T17:04:12.467Z,2.20
2019-01-10T17:06:44.098Z,2.30
2019-01-10T17:09:17.782Z,2.53
2019-01-10T17:11:49.271Z,2.40
2019-01-10T17:14:20.884Z,2.63
2019-01-10T17:16:52.531Z,2.27
2019-01-10T17:19:24.152Z,2.60
2019-01-10T17:21:55.780Z,2.17
2019-01-10T17:24:27.421Z,2.87
2019-01-10T17:26:59.112Z,2.20
2019-01-10T17:29:31.921Z,2.33
2019-01-10T17:32:03.674Z,2.30
2019-01-10T17:34:35.293Z,3.13
2019-01-10T17:37:06.950Z,4.20
2019-01-10T17:39:38.574Z,4.10
2019-01-10T17:42:10.217Z,4.97
2019-01-10T17:44:41.858Z,2.50
2019-01-10T17:47:13.492Z,3.50
2019-01-10T17:49:45.117Z,2.80
2019-01-10T17:52:16.767Z,2.00
2019-01-10T17:54:48.484Z,2.00
2019-01-10T17:57:20.125Z,2.67
2019-01-10T17:59:51.748Z,2.93
2019-01-10T18:02:23.482Z,2.80
2019-01-10T18:04:55.124Z,2.63
2019-01-10T18:07:26.787Z,2.30
2019-01-10T18:09:58.436Z,3.00
2019-01-10T18:12:30.080Z,2.87
2019-01-10T18:15:01.788Z,3.20
2019-01-10T18:17:33.440Z,4.07
2019-01-10T18:20:08.992Z,2.77
2019-01-10T18:22:40.642Z,2.60
2019-01-10T18:25:12.878Z,3.73
2019-01-10T18:27:44.649Z,4.57
2019-01-10T18:30:18.447Z,3.30
2019-01-10T18:32:50.095Z,3.27
2019-01-10T18:35:26.216Z,3.40
2019-01-10T18:37:55.681Z,6.00
2019-01-10T18:40:27.306Z,2.70
2019-01-10T18:42:58.932Z,3.77
2019-01-10T18:45:31.581Z,3.83
2019-01-10T18:48:03.750Z,2.67
2019-01-10T18:50:35.400Z,2.87
2019-01-10T18:53:07.055Z,2.67
2019-01-10T18:55:38.717Z,1.90
2019-01-10T18:58:10.345Z,2.80
2019-01-10T19:00:42.087Z,2.20
2019-01-10T19:03:13.716Z,2.70
2019-01-10T19:05:45.453Z,2.80
2019-01-10T19:08:17.222Z,3.00
2019-01-10T19:10:48.932Z,1.50
2019-01-10T19:13:20.585Z,2.27
2019-01-10T19:15:52.268Z,2.30
2019-01-10T19:18:24.057Z,4.93
2019-01-10T19:20:55.683Z,2.70
2019-01-10T19:23:27.366Z,2.77
2019-01-10T19:25:58.997Z,2.90
2019-01-10T19:28:30.640Z,2.73
2019-01-10T19:31:02.277Z,2.80
2019-01-10T19:33:33.918Z,3.27
2019-01-10T19:36:05.562Z,3.90
2019-01-10T19:38:37.246Z,4.13
2019-01-10T19:41:08.899Z,3.50
2019-01-10T19:43:40.541Z,4.63
2019-01-10T19:46:12.321Z,4.10
2019-01-10T19:48:43.976Z,3.87
2019-01-10T19:51:15.625Z,3.83
2019-01-10T19:53:47.274Z,3.83
2019-01-10T19:56:18.920Z,3.60
2019-01-10T19:58:50.560Z,3.13
2019-01-10T20:01:25.500Z,3.30
2019-01-10T20:03:57.176Z,3.43
2019-01-10T20:06:28.911Z,3.27
2019-01-10T20:09:00.589Z,3.47
2019-01-10T20:11:32.256Z,2.93
2019-01-10T20:14:04.282Z,3.73
2019-01-10T20:16:36.018Z,3.40
2019-01-10T20:19:07.790Z,3.70
2019-01-10T20:21:39.538Z,2.70
2019-01-10T20:24:11.224Z,3.30
2019-01-10T20:26:42.862Z,3.07
2019-01-10T20:29:16.248Z,3.13
2019-01-10T20:31:48.982Z,3.07
2019-01-10T20:34:20.648Z,3.77
2019-01-10T20:36:52.285Z,2.93
2019-01-10T20:39:23.994Z,3.17
2019-01-10T20:42:01.652Z,3.03
2019-01-10T20:44:29.169Z,2.93
2019-01-10T20:47:00.814Z,2.97
2019-01-10T20:49:32.474Z,3.50
2019-01-10T20:52:04.323Z,2.97
2019-01-10T20:54:35.970Z,3.33
2019-01-10T20:57:07.602Z,2.93
2019-01-10T20:59:39.373Z,2.67
2019-01-10T21:02:11.089Z,3.30
2019-01-10T21:04:42.737Z,3.23
2019-01-10T21:07:14.362Z,3.07
2019-01-10T21:09:46.027Z,2.50
2019-01-10T21:12:17.700Z,2.90
2019-01-10T21:14:50.639Z,2.93
2019-01-10T21:17:23.490Z,3.33
2019-01-10T21:19:55.521Z,3.57
2019-01-10T21:22:28.666Z,3.63
2019-01-10T21:25:05.789Z,2.93
2019-01-10T21:27:37.597Z,3.80
2019-01-10T21:30:11.757Z,3.73
2019-01-10T21:32:43.530Z,3.40
2019-01-10T21:35:19.441Z,4.60
2019-01-10T21:37:51.370Z,3.80
2019-01-10T21:40:23.565Z,3.50
2019-01-10T21:42:56.898Z,2.87
2019-01-10T21:45:28.826Z,3.53
2019-01-10T21:48:00.577Z,3.10
2019-01-10T21:50:36.128Z,3.63
2019-01-10T21:53:07.862Z,2.60
2019-01-10T21:55:39.529Z,3.07
2019-01-10T21:58:11.225Z,3.20
2019-01-10T22:00:42.991Z,3.03
2019-01-10T22:03:14.631Z,3.20
2019-01-10T22:05:46.375Z,3.03
2019-01-10T22:08:18.071Z,3.23
2019-01-10T22:10:49.726Z,3.67
2019-01-10T22:13:21.389Z,3.50
2019-01-10T22:15:53.038Z,3.20
2019-01-10T22:18:24.692Z,3.30
2019-01-10T22:20:56.850Z,3.37
2019-01-10T22:23:28.472Z,3.97
2019-01-10T22:26:00.113Z,3.23
2019-01-10T22:28:31.744Z,4.57
2019-01-10T22:31:03.418Z,3.57
2019-01-10T22:33:35.047Z,4.67
2019-01-10T22:36:07.321Z,3.43
2019-01-10T22:38:39.047Z,3.37
2019-01-10T22:41:11.097Z,4.37
2019-01-10T22:43:42.813Z,3.70
2019-01-10T22:46:14.482Z,3.60
2019-01-10T22:48:47.984Z,4.23
2019-01-10T22:51:19.701Z,3.53
2019-01-10T22:53:51.635Z,3.93
2019-01-10T22:56:26.721Z,4.20
2019-01-10T22:58:58.836Z,3.60
2019-01-10T23:01:43.512Z,3.43
2019-01-10T23:04:18.871Z,3.30
2019-01-10T23:06:50.824Z,3.60
2019-01-10T23:09:22.551Z,3.57
2019-01-10T23:11:54.780Z,3.50
2019-01-10T23:14:33.394Z,3.97
2019-01-10T23:17:06.021Z,4.23
2019-01-10T23:19:44.587Z,3.53
2019-01-10T23:22:19.065Z,3.60
2019-01-10T23:24:55.529Z,4.03
2019-01-10T23:27:27.173Z,3.97
2019-01-10T23:29:59.429Z,3.83
2019-01-10T23:32:31.074Z,3.90
2019-01-10T23:35:02.922Z,4.83
2019-01-10T23:37:34.541Z,4.97
2019-01-10T23:40:06.632Z,4.30
2019-01-10T23:42:38.270Z,4.50
2019-01-10T23:45:10.008Z,3.77
2019-01-10T23:47:41.652Z,4.33
2019-01-10T23:50:13.290Z,4.50
2019-01-10T23:52:44.926Z,4.53
2019-01-10T23:55:16.546Z,5.40
2019-01-10T23:57:48.177Z,5.27
